TimeCDT,TemperatureF,Dew PointF,Humidity,Sea Level PressureIn,VisibilityMPH,Wind Direction,Wind SpeedMPH,Gust SpeedMPH,PrecipitationIn,Events,Conditions,WindDirDegrees,DateUTC
12:34 AM,69.8,69.8,100,30.06,10.0,ESE,5.8,-,N/A,,Partly Cloudy,120,2013-08-19 05:34:00
12:51 AM,69.8,69.8,100,30.06,10.0,ESE,5.8,-,N/A,,Mostly Cloudy,120,2013-08-19 05:51:00
1:10 AM,69.8,69.8,100,30.05,10.0,ESE,4.6,-,N/A,,Mostly Cloudy,120,2013-08-19 06:10:00
1:56 AM,70.0,69.1,97,30.04,10.0,ESE,5.8,-,0.01,,Mostly Cloudy,120,2013-08-19 06:56:00
2:56 AM,70.0,69.1,97,30.02,10.0,SE,5.8,-,N/A,,Mostly Cloudy,130,2013-08-19 07:56:00
3:03 AM,69.8,69.8,100,30.03,10.0,SE,4.6,-,N/A,,Scattered Clouds,140,2013-08-19 08:03:00
3:56 AM,70.0,68.0,93,30.02,10.0,SSE,3.5,-,N/A,,Clear,150,2013-08-19 08:56:00
4:56 AM,69.1,68.0,96,30.02,10.0,SSE,3.5,-,N/A,,Clear,150,2013-08-19 09:56:00
5:52 AM,69.8,66.2,88,30.04,7.0,Calm,Calm,-,N/A,,Scattered Clouds,0,2013-08-19 10:52:00
5:56 AM,69.1,66.9,93,30.04,8.0,Calm,Calm,-,N/A,,Mostly Cloudy,0,2013-08-19 10:56:00
6:26 AM,69.8,68.0,94,30.06,1.5,Calm,Calm,-,N/A,,Overcast,0,2013-08-19 11:26:00
6:35 AM,69.8,68.0,94,30.06,0.5,SE,3.5,-,N/A,Fog,Fog,130,2013-08-19 11:35:00
6:56 AM,70.0,69.1,97,30.05,0.2,SE,4.6,-,N/A,Fog,Fog,130,2013-08-19 11:56:00
7:56 AM,72.0,70.0,93,30.07,2.0,Variable,3.5,-,N/A,,Overcast,0,2013-08-19 12:56:00
8:06 AM,71.6,71.6,100,30.08,5.0,SE,3.5,-,N/A,,Overcast,140,2013-08-19 13:06:00
8:56 AM,73.0,72.0,96,30.06,10.0,Calm,Calm,-,N/A,,Overcast,0,2013-08-19 13:56:00
9:56 AM,77.0,73.0,88,30.08,10.0,Calm,Calm,-,N/A,,Overcast,0,2013-08-19 14:56:00
10:11 AM,77.0,73.4,89,30.09,10.0,South,4.6,-,N/A,,Overcast,170,2013-08-19 15:11:00
11:35 AM,82.4,73.4,74,30.09,10.0,ESE,6.9,-,N/A,,Mostly Cloudy,120,2013-08-19 16:35:00
11:52 AM,82.4,73.4,74,30.08,10.0,Calm,Calm,-,N/A,,Scattered Clouds,0,2013-08-19 16:52:00
11:56 AM,82.9,73.9,74,30.07,10.0,ESE,3.5,-,N/A,,Scattered Clouds,120,2013-08-19 16:56:00
12:56 PM,84.9,72.0,65,30.05,10.0,SSE,5.8,-,N/A,,Mostly Cloudy,150,2013-08-19 17:56:00
1:56 PM,86.0,72.0,63,30.03,10.0,Variable,5.8,-,N/A,,Scattered Clouds,0,2013-08-19 18:56:00
3:56 PM,84.9,72.0,65,29.99,10.0,NE,3.5,-,0.01,,Mostly Cloudy,50,2013-08-19 20:56:00
4:53 PM,73.4,73.4,100,30.02,0.5,NE,9.2,-,0.45,Fog-Rain,Heavy Rain,40,2013-08-19 21:53:00
4:56 PM,73.9,73.0,97,30.01,0.5,NNE,9.2,-,0.47,Fog-Rain-Thunderstorm,Heavy Thunderstorms and Rain,20,2013-08-19 21:56:00
5:02 PM,75.2,73.4,94,30.01,2.0,NE,8.1,-,0.00,Rain-Thunderstorm,Light Thunderstorms and Rain,40,2013-08-19 22:02:00
5:10 PM,77.0,73.4,89,30.01,10.0,Variable,4.6,-,0.00,Rain-Thunderstorm,Light Thunderstorms and Rain,0,2013-08-19 22:10:00
5:20 PM,78.8,73.4,83,30.00,10.0,NE,3.5,-,0.00,Rain-Thunderstorm,Light Thunderstorms and Rain,50,2013-08-19 22:20:00
5:27 PM,80.6,73.4,79,30.00,10.0,North,4.6,-,0.00,,Scattered Clouds,350,2013-08-19 22:27:00
5:56 PM,80.1,73.9,81,30.00,10.0,Calm,Calm,-,0.00,Thunderstorm,Thunderstorm,0,2013-08-19 22:56:00
6:56 PM,77.0,72.0,84,30.01,10.0,SSE,4.6,-,N/A,,Mostly Cloudy,150,2013-08-19 23:56:00
7:17 PM,75.2,71.6,89,30.03,10.0,ESE,4.6,-,N/A,Thunderstorm,Thunderstorm,120,2013-08-20 00:17:00
7:33 PM,75.2,71.6,89,30.03,10.0,Calm,Calm,-,N/A,,Clear,0,2013-08-20 00:33:00
7:56 PM,75.0,71.1,87,30.02,10.0,Calm,Calm,-,N/A,,Clear,0,2013-08-20 00:56:00
8:56 PM,73.9,72.0,93,30.04,10.0,SE,3.5,-,N/A,,Clear,140,2013-08-20 01:56:00
9:56 PM,73.9,72.0,93,30.04,10.0,Calm,Calm,-,N/A,,Overcast,0,2013-08-20 02:56:00
10:56 PM,73.0,71.1,93,30.05,10.0,Calm,Calm,-,N/A,,Scattered Clouds,0,2013-08-20 03:56:00
11:56 PM,73.0,71.1,93,30.04,10.0,Calm,Calm,-,N/A,,Partly Cloudy,0,2013-08-20 04:56:00